createdAt,value
2022-08-29T00:00:50.925Z,64.11
2022-08-29T00:01:51.178Z,64.11
2022-08-29T00:02:51.288Z,64.44
2022-08-29T00:03:51.495Z,64.24
2022-08-29T00:04:51.669Z,64.24
2022-08-29T00:05:51.826Z,64.34
2022-08-29T00:06:52.001Z,64.44
2022-08-29T00:07:52.157Z,64.44
2022-08-29T00:08:52.329Z,64.34
2022-08-29T00:09:52.486Z,64.14
2022-08-29T00:10:52.638Z,64.04
2022-08-29T00:11:52.846Z,64.34
2022-08-29T00:12:53.005Z,64.34
2022-08-29T00:13:53.195Z,64.14
2022-08-29T00:14:53.346Z,64.34
2022-08-29T00:15:53.547Z,64.54
2022-08-29T00:16:53.806Z,65.35
2022-08-29T00:17:53.877Z,64.84
2022-08-29T00:18:54.038Z,64.75
2022-08-29T00:19:54.236Z,64.84
2022-08-29T00:20:54.386Z,64.54
2022-08-29T00:21:54.596Z,64.44
2022-08-29T00:22:54.757Z,64.54
2022-08-29T00:23:54.926Z,65.05
2022-08-29T00:24:55.080Z,64.95
2022-08-29T00:25:55.267Z,64.98
2022-08-29T00:26:55.436Z,64.84
2022-08-29T00:27:55.619Z,65.08
2022-08-29T00:28:55.775Z,65.78
2022-08-29T00:29:55.966Z,65.38
2022-08-29T00:30:56.118Z,64.98
2022-08-29T00:31:56.407Z,65.18
2022-08-29T00:32:56.496Z,65.18
2022-08-29T00:33:56.686Z,65.38
2022-08-29T00:34:56.861Z,65.48
2022-08-29T00:35:57.006Z,65.18
2022-08-29T00:36:57.178Z,65.18
2022-08-29T00:37:57.337Z,65.48
2022-08-29T00:38:58.309Z,65.28
2022-08-29T00:39:57.733Z,65.58
2022-08-29T00:40:57.867Z,65.78
2022-08-29T00:41:58.047Z,65.28
2022-08-29T00:42:58.207Z,65.38
2022-08-29T00:43:58.398Z,65.18
2022-08-29T00:44:58.558Z,65.38
2022-08-29T00:45:58.767Z,65.38
2022-08-29T00:46:58.887Z,65.58
2022-08-29T00:47:59.057Z,65.48
2022-08-29T00:48:59.208Z,65.78
2022-08-29T00:49:59.416Z,65.38
2022-08-29T00:50:59.567Z,65.58
2022-08-29T00:51:59.776Z,65.68
2022-08-29T00:52:59.937Z,66.19
2022-08-29T00:54:00.097Z,65.78
2022-08-29T00:55:00.254Z,66.12
2022-08-29T00:56:00.447Z,66.02
2022-08-29T00:57:00.624Z,66.42
2022-08-29T00:58:00.788Z,66.32
2022-08-29T00:59:00.948Z,65.61
2022-08-29T01:00:01.107Z,65.81
2022-08-29T01:01:01.339Z,66.12
2022-08-29T01:02:01.489Z,66.32
2022-08-29T01:03:01.607Z,66.02
2022-08-29T01:04:01.768Z,66.12
2022-08-29T01:05:01.927Z,65.92
2022-08-29T01:06:02.127Z,65.81
2022-08-29T01:07:02.298Z,66.02
2022-08-29T01:08:02.457Z,65.81
2022-08-29T01:09:02.607Z,66.52
2022-08-29T01:10:13.817Z,66.22
2022-08-29T01:11:03.977Z,65.92
2022-08-29T01:12:03.177Z,66.82
2022-08-29T01:13:03.337Z,66.02
2022-08-29T01:14:03.527Z,66.02
2022-08-29T01:15:03.692Z,66.22
2022-08-29T01:16:03.882Z,66.62
2022-08-29T01:17:04.052Z,66.32
2022-08-29T01:18:04.207Z,66.22
2022-08-29T01:19:04.368Z,66.32
2022-08-29T01:20:04.525Z,66.42
2022-08-29T01:21:04.680Z,66.32
2022-08-29T01:22:04.888Z,66.82
2022-08-29T01:23:05.039Z,66.75
2022-08-29T01:24:05.238Z,66.86
2022-08-29T01:25:05.389Z,66.55
2022-08-29T01:26:05.595Z,66.96
2022-08-29T01:27:05.759Z,66.75
2022-08-29T01:28:05.933Z,66.75
2022-08-29T01:29:06.088Z,66.75
2022-08-29T01:30:06.252Z,66.55
2022-08-29T01:31:06.594Z,66.35
2022-08-29T01:32:06.620Z,66.55
2022-08-29T01:33:06.758Z,66.65
2022-08-29T01:34:06.928Z,66.35
2022-08-29T01:35:07.118Z,66.45
2022-08-29T01:36:07.277Z,66.75
2022-08-29T01:37:07.488Z,66.45
2022-08-29T01:38:07.710Z,66.35
2022-08-29T01:39:07.829Z,66.25
2022-08-29T01:40:08.039Z,66.45
2022-08-29T01:41:08.165Z,66.35
2022-08-29T01:42:08.318Z,66.75
2022-08-29T01:43:08.508Z,66.75
2022-08-29T01:44:08.670Z,66.45
2022-08-29T01:45:10.034Z,66.65
2022-08-29T01:46:09.114Z,67.06
2022-08-29T01:47:09.228Z,67.06
2022-08-29T01:48:09.388Z,66.86
2022-08-29T01:49:09.579Z,66.65
2022-08-29T01:50:09.735Z,67.36
2022-08-29T01:51:09.939Z,66.96
2022-08-29T01:52:10.097Z,67.26
2022-08-29T01:53:10.258Z,67.39
2022-08-29T01:54:10.413Z,66.78
2022-08-29T01:55:10.608Z,67.19
2022-08-29T01:56:10.780Z,66.99
2022-08-29T01:57:13.133Z,67.09
2022-08-29T01:58:11.181Z,66.89
2022-08-29T01:59:11.299Z,66.69
2022-08-29T02:00:11.460Z,66.89
2022-08-29T02:01:11.652Z,66.89
2022-08-29T02:02:11.858Z,67.49
2022-08-29T02:03:11.999Z,67.19
2022-08-29T02:04:12.135Z,67.29
2022-08-29T02:05:12.289Z,67.19
2022-08-29T02:06:12.458Z,66.99
2022-08-29T02:07:12.992Z,67.39
2022-08-29T02:08:12.875Z,67.09
2022-08-29T02:09:12.999Z,67.49
2022-08-29T02:10:13.159Z,67.19
2022-08-29T02:11:13.328Z,67.29
2022-08-29T02:12:13.488Z,67.39
2022-08-29T02:13:13.648Z,67.09
2022-08-29T02:14:19.638Z,67.39
2022-08-29T02:15:14.989Z,67.09
2022-08-29T02:16:14.200Z,67.39
2022-08-29T02:17:14.347Z,67.39
2022-08-29T02:18:14.542Z,67.49
2022-08-29T02:19:14.686Z,67.39
2022-08-29T02:20:14.839Z,67.19
2022-08-29T02:21:15.019Z,67.69
2022-08-29T02:22:15.190Z,67.19
2022-08-29T02:23:30.267Z,67.49
2022-08-29T02:24:25.423Z,67.80
2022-08-29T02:25:16.712Z,68.20
2022-08-29T02:26:15.910Z,68.10
2022-08-29T02:27:16.068Z,68.30
2022-08-29T02:28:16.421Z,67.69
2022-08-29T02:29:16.420Z,67.60
2022-08-29T02:30:16.570Z,67.60
2022-08-29T02:31:16.789Z,67.80
2022-08-29T02:32:16.900Z,67.90
2022-08-29T02:33:17.089Z,67.90
2022-08-29T02:34:17.269Z,68.03
2022-08-29T02:35:17.464Z,67.83
2022-08-29T02:36:17.977Z,67.83
2022-08-29T02:37:17.817Z,68.23
2022-08-29T02:38:17.971Z,68.13
2022-08-29T02:39:18.148Z,67.83
2022-08-29T02:40:18.330Z,67.93
2022-08-29T02:41:18.469Z,68.23
2022-08-29T02:42:18.628Z,68.54
2022-08-29T02:43:18.788Z,67.93
2022-08-29T02:44:18.948Z,68.03
2022-08-29T02:45:19.159Z,68.33
2022-08-29T02:46:19.370Z,68.43
2022-08-29T02:47:19.509Z,68.54
2022-08-29T02:48:19.670Z,68.13
2022-08-29T02:49:19.858Z,68.33
2022-08-29T02:50:20.029Z,68.63
2022-08-29T02:51:20.240Z,68.43
2022-08-29T02:52:20.393Z,68.74
2022-08-29T02:53:20.599Z,68.54
2022-08-29T02:54:20.759Z,68.33
2022-08-29T02:55:20.919Z,68.13
2022-08-29T02:56:21.088Z,68.54
2022-08-29T02:57:21.249Z,68.33
2022-08-29T02:58:21.399Z,68.43
2022-08-29T02:59:21.599Z,68.03
2022-08-29T03:00:21.751Z,68.63
2022-08-29T03:01:21.989Z,68.63
2022-08-29T03:02:22.121Z,68.63
2022-08-29T03:03:22.286Z,68.94
2022-08-29T03:04:22.439Z,68.67
2022-08-29T03:05:22.629Z,68.33
2022-08-29T03:06:22.799Z,68.33
2022-08-29T03:07:22.962Z,68.23
2022-08-29T03:08:23.117Z,68.33
2022-08-29T03:09:23.281Z,68.23
2022-08-29T03:10:23.428Z,68.13
2022-08-29T03:11:23.609Z,68.23
2022-08-29T03:12:23.769Z,68.97
2022-08-29T03:13:23.960Z,68.77
2022-08-29T03:14:24.119Z,68.67
2022-08-29T03:15:24.318Z,68.77
2022-08-29T03:16:24.538Z,68.97
2022-08-29T03:17:24.649Z,68.97
2022-08-29T03:18:24.811Z,69.07
2022-08-29T03:19:24.999Z,69.38
2022-08-29T03:20:25.159Z,68.57
2022-08-29T03:21:25.339Z,68.57
2022-08-29T03:22:25.490Z,68.47
2022-08-29T03:23:25.689Z,68.67
2022-08-29T03:24:27.109Z,68.57
2022-08-29T03:25:26.009Z,68.57
2022-08-29T03:26:26.188Z,69.27
2022-08-29T03:27:26.359Z,69.18
2022-08-29T03:28:26.529Z,68.57
2022-08-29T03:29:26.698Z,68.67
2022-08-29T03:30:26.849Z,69.07
2022-08-29T03:31:27.112Z,68.87
2022-08-29T03:32:27.219Z,69.07
2022-08-29T03:33:27.421Z,68.87
2022-08-29T03:34:27.576Z,69.38
2022-08-29T03:35:27.783Z,69.58
2022-08-29T03:36:27.940Z,69.18
2022-08-29T03:37:28.101Z,69.18
2022-08-29T03:38:28.267Z,69.18
2022-08-29T03:39:28.427Z,69.38
2022-08-29T03:40:28.731Z,69.18
2022-08-29T03:41:28.767Z,69.38
2022-08-29T03:42:28.919Z,69.38
2022-08-29T03:43:29.080Z,69.89
2022-08-29T03:44:29.241Z,69.27
2022-08-29T03:45:29.430Z,69.18
2022-08-29T03:46:29.675Z,69.48
2022-08-29T03:47:29.770Z,69.27
2022-08-29T03:48:29.931Z,69.38
2022-08-29T03:49:30.089Z,69.48
2022-08-29T03:50:30.259Z,69.38
2022-08-29T03:51:30.449Z,69.38
2022-08-29T03:52:30.590Z,69.38
2022-08-29T03:53:30.860Z,69.78
2022-08-29T03:54:30.929Z,69.89
2022-08-29T03:55:31.129Z,69.48
2022-08-29T03:56:31.289Z,70.18
2022-08-29T03:57:31.439Z,69.89
2022-08-29T03:58:31.627Z,69.68
2022-08-29T03:59:31.799Z,70.09
2022-08-29T04:00:31.979Z,69.98
2022-08-29T04:01:32.227Z,70.18
2022-08-29T04:02:32.368Z,70.39
2022-08-29T04:03:32.529Z,69.98
2022-08-29T04:04:32.713Z,70.59
2022-08-29T04:05:32.869Z,70.09
2022-08-29T04:06:33.080Z,69.98
2022-08-29T04:07:33.250Z,70.29
2022-08-29T04:08:33.399Z,70.52
2022-08-29T04:09:33.589Z,70.18
2022-08-29T04:10:33.799Z,70.39
2022-08-29T04:11:33.947Z,70.09
2022-08-29T04:12:34.129Z,70.18
2022-08-29T04:13:34.309Z,69.68
2022-08-29T04:14:34.489Z,70.29
2022-08-29T04:15:34.679Z,70.29
2022-08-29T04:16:34.924Z,69.98
2022-08-29T04:17:35.034Z,70.18
2022-08-29T04:18:35.199Z,69.89
2022-08-29T04:19:35.379Z,69.89
2022-08-29T04:20:35.579Z,69.89
2022-08-29T04:21:35.719Z,70.18
2022-08-29T04:22:35.899Z,70.39
2022-08-29T04:23:36.070Z,70.18
2022-08-29T04:24:36.260Z,70.79
2022-08-29T04:25:37.194Z,70.49
2022-08-29T04:26:37.660Z,70.09
2022-08-29T04:27:36.803Z,70.09
2022-08-29T04:28:36.989Z,70.39
2022-08-29T04:29:37.170Z,70.69
2022-08-29T04:30:37.371Z,70.69
2022-08-29T04:31:37.599Z,70.59
2022-08-29T04:32:37.739Z,70.09
2022-08-29T04:33:37.930Z,70.49
2022-08-29T04:34:38.079Z,70.59
2022-08-29T04:35:38.309Z,70.29
2022-08-29T04:36:38.409Z,69.89
2022-08-29T04:37:38.589Z,70.79
2022-08-29T04:38:38.789Z,70.69
2022-08-29T04:39:38.972Z,70.69
2022-08-29T04:40:39.216Z,70.89
2022-08-29T04:41:39.349Z,70.69
2022-08-29T04:42:39.499Z,70.96
2022-08-29T04:43:39.691Z,71.06
2022-08-29T04:44:39.889Z,70.86
2022-08-29T04:45:40.029Z,71.06
2022-08-29T04:46:40.229Z,70.86
2022-08-29T04:47:40.363Z,70.73
2022-08-29T04:48:40.547Z,70.62
2022-08-29T04:49:40.749Z,70.62
2022-08-29T04:50:40.899Z,70.42
2022-08-29T04:51:41.065Z,70.09
2022-08-29T04:52:41.232Z,70.19
2022-08-29T04:53:41.391Z,70.59
2022-08-29T04:54:41.561Z,69.78
2022-08-29T04:55:41.720Z,70.09
2022-08-29T04:56:47.445Z,69.75
2022-08-29T04:57:43.070Z,69.35
2022-08-29T04:58:42.241Z,69.24
2022-08-29T04:59:42.440Z,69.04
2022-08-29T05:00:42.599Z,68.91
2022-08-29T05:01:42.820Z,68.71
2022-08-29T05:02:43.005Z,68.91
2022-08-29T05:03:43.109Z,68.91
2022-08-29T05:04:43.307Z,68.17
2022-08-29T05:05:43.458Z,68.17
2022-08-29T05:06:43.629Z,67.97
2022-08-29T05:07:43.821Z,68.07
2022-08-29T05:08:43.992Z,68.27
2022-08-29T05:09:44.159Z,67.63
2022-08-29T05:10:44.320Z,68.14
2022-08-29T05:11:44.506Z,67.63
2022-08-29T05:12:44.682Z,67.71
2022-08-29T05:13:44.859Z,67.10
2022-08-29T05:14:45.087Z,67.30
2022-08-29T05:15:45.309Z,67.40
2022-08-29T05:16:45.399Z,67.00
2022-08-29T05:17:45.590Z,66.90
2022-08-29T05:18:45.759Z,66.36
2022-08-29T05:19:45.968Z,66.47
2022-08-29T05:20:46.101Z,66.87
2022-08-29T05:21:46.295Z,66.56
2022-08-29T05:22:46.449Z,66.16
2022-08-29T05:23:46.638Z,66.06
2022-08-29T05:24:46.831Z,66.36
2022-08-29T05:25:46.980Z,65.96
2022-08-29T05:26:47.164Z,66.36
2022-08-29T05:27:47.325Z,66.67
2022-08-29T05:28:47.517Z,65.83
2022-08-29T05:29:47.710Z,65.73
2022-08-29T05:30:47.898Z,65.83
2022-08-29T05:31:48.042Z,65.62
2022-08-29T05:32:48.211Z,65.73
2022-08-29T05:33:48.390Z,65.93
2022-08-29T05:34:48.581Z,65.19
2022-08-29T05:35:48.728Z,65.19
2022-08-29T05:36:48.900Z,65.09
2022-08-29T05:37:49.080Z,64.89
2022-08-29T05:38:49.260Z,64.66
2022-08-29T05:39:49.461Z,65.26
2022-08-29T05:40:49.631Z,64.56
2022-08-29T05:41:49.770Z,64.56
2022-08-29T05:42:49.951Z,64.76
2022-08-29T05:43:50.237Z,64.06
2022-08-29T05:44:50.384Z,64.46
2022-08-29T05:45:50.537Z,64.03
2022-08-29T05:46:50.672Z,64.03
2022-08-29T05:47:50.801Z,64.43
2022-08-29T05:48:50.981Z,64.83
2022-08-29T05:49:51.194Z,63.73
2022-08-29T05:50:51.343Z,64.23
2022-08-29T05:51:51.496Z,63.59
2022-08-29T05:52:51.680Z,63.70
2022-08-29T05:53:51.882Z,63.39
2022-08-29T05:54:52.073Z,63.59
2022-08-29T05:55:52.231Z,63.90
2022-08-29T05:56:52.420Z,63.39
2022-08-29T05:57:52.591Z,63.70
2022-08-29T05:58:52.781Z,63.90
2022-08-29T05:59:52.981Z,63.36
2022-08-29T06:00:53.201Z,63.56
2022-08-29T06:01:53.340Z,63.46
2022-08-29T06:02:53.603Z,62.86
2022-08-29T06:03:53.761Z,63.56
2022-08-29T06:04:53.871Z,63.03
2022-08-29T06:05:54.051Z,62.73
2022-08-29T06:06:54.189Z,62.93
2022-08-29T06:07:54.362Z,62.73
2022-08-29T06:08:54.542Z,62.53
2022-08-29T06:09:54.744Z,62.90
2022-08-29T06:10:55.892Z,62.50
2022-08-29T06:11:55.079Z,62.40
2022-08-29T06:12:55.242Z,62.60
2022-08-29T06:13:55.422Z,61.40
2022-08-29T06:14:55.609Z,61.10
2022-08-29T06:15:55.849Z,61.30
2022-08-29T06:16:55.972Z,61.60
2022-08-29T06:17:56.155Z,61.60
2022-08-29T06:18:56.333Z,61.40
2022-08-29T06:19:56.523Z,61.50
2022-08-29T06:20:56.763Z,61.50
2022-08-29T06:21:56.923Z,62.00
2022-08-29T06:22:57.043Z,62.20
2022-08-29T06:23:57.203Z,61.80
2022-08-29T06:24:57.773Z,61.70
2022-08-29T06:25:57.555Z,62.10
2022-08-29T06:26:57.763Z,63.00
2022-08-29T06:27:57.893Z,62.47
2022-08-29T06:28:58.073Z,61.87
2022-08-29T06:30:01.770Z,62.27
2022-08-29T06:30:58.456Z,62.07
2022-08-29T06:31:58.573Z,61.36
2022-08-29T06:32:58.752Z,61.17
2022-08-29T06:33:58.937Z,60.97
2022-08-29T06:34:59.142Z,61.27
2022-08-29T06:35:59.273Z,61.87
2022-08-29T06:36:59.453Z,61.36
2022-08-29T06:37:59.634Z,61.36
2022-08-29T06:38:59.818Z,61.50
2022-08-29T06:40:00.053Z,61.87
2022-08-29T06:41:00.181Z,61.57
2022-08-29T06:42:00.355Z,61.77
2022-08-29T06:43:00.542Z,61.67
2022-08-29T06:44:00.713Z,61.77
2022-08-29T06:45:01.404Z,61.67
2022-08-29T06:46:01.130Z,61.77
2022-08-29T06:47:01.222Z,61.77
2022-08-29T06:48:01.404Z,61.97
2022-08-29T06:49:01.590Z,61.87
2022-08-29T06:50:01.794Z,61.67
2022-08-29T06:51:01.949Z,62.27
2022-08-29T06:52:02.113Z,61.97
2022-08-29T06:53:26.553Z,62.17
2022-08-29T06:54:03.475Z,61.97
2022-08-29T06:55:02.650Z,62.57
2022-08-29T06:56:02.803Z,61.84
2022-08-29T06:57:02.978Z,61.84
2022-08-29T06:58:03.146Z,61.74
2022-08-29T06:59:03.334Z,61.64
2022-08-29T07:00:03.525Z,62.04
2022-08-29T07:01:04.723Z,61.54
2022-08-29T07:02:03.835Z,61.94
2022-08-29T07:03:04.082Z,61.84
2022-08-29T07:04:04.191Z,62.14
2022-08-29T07:05:04.375Z,61.94
2022-08-29T07:06:04.548Z,62.44
2022-08-29T07:07:04.743Z,62.64
2022-08-29T07:08:04.916Z,62.14
2022-08-29T07:09:05.115Z,61.44
2022-08-29T07:10:05.265Z,62.01
2022-08-29T07:11:05.446Z,61.41
2022-08-29T07:12:05.625Z,61.61
2022-08-29T07:13:05.809Z,61.01
2022-08-29T07:14:06.005Z,62.01
2022-08-29T07:15:06.156Z,61.41
2022-08-29T07:16:06.373Z,61.11
2022-08-29T07:17:06.513Z,61.61
2022-08-29T07:18:06.686Z,61.31
2022-08-29T07:19:06.896Z,60.58
2022-08-29T07:20:07.026Z,61.48
2022-08-29T07:21:07.222Z,61.58
2022-08-29T07:22:07.882Z,61.08
2022-08-29T07:23:08.774Z,61.38
2022-08-29T07:24:07.749Z,60.58
2022-08-29T07:25:07.887Z,60.28
2022-08-29T07:26:08.078Z,60.28
2022-08-29T07:27:08.278Z,60.28
2022-08-29T07:28:08.483Z,60.18
2022-08-29T07:29:08.624Z,60.65
2022-08-29T07:30:08.757Z,60.15
2022-08-29T07:31:08.997Z,60.25
2022-08-29T07:32:09.098Z,59.75
2022-08-29T07:33:09.280Z,59.95
2022-08-29T07:34:09.477Z,59.85
2022-08-29T07:35:13.373Z,59.52
2022-08-29T07:36:09.777Z,59.52
2022-08-29T07:37:10.010Z,60.12
2022-08-29T07:38:10.128Z,59.32
2022-08-29T07:39:10.327Z,59.59
2022-08-29T07:40:10.508Z,59.09
2022-08-29T07:41:10.659Z,58.89
2022-08-29T07:42:10.858Z,59.30
2022-08-29T07:43:11.161Z,59.66
2022-08-29T07:44:11.219Z,59.66
2022-08-29T07:45:11.351Z,58.47
2022-08-29T07:46:11.589Z,58.56
2022-08-29T07:47:11.727Z,58.54
2022-08-29T07:48:11.898Z,58.84
2022-08-29T07:49:12.089Z,58.84
2022-08-29T07:50:12.285Z,58.51
2022-08-29T07:51:12.398Z,58.11
2022-08-29T07:52:12.578Z,58.21
2022-08-29T07:53:12.779Z,57.91
2022-08-29T07:54:12.929Z,57.39
2022-08-29T07:55:13.079Z,57.39
2022-08-29T07:56:13.249Z,57.48
2022-08-29T07:57:13.458Z,57.39
2022-08-29T07:58:13.728Z,57.09
2022-08-29T07:59:13.792Z,57.18
2022-08-29T08:00:13.929Z,57.48
2022-08-29T08:01:21.091Z,57.28
2022-08-29T08:02:15.464Z,57.39
2022-08-29T08:03:14.614Z,57.58
2022-08-29T08:04:14.682Z,57.68
2022-08-29T08:05:14.850Z,57.76
2022-08-29T08:06:15.011Z,57.95
2022-08-29T08:07:15.190Z,57.76
2022-08-29T08:08:15.609Z,58.36
2022-08-29T08:09:15.550Z,57.76
2022-08-29T08:10:15.734Z,57.65
2022-08-29T08:11:15.880Z,57.46
2022-08-29T08:12:16.061Z,57.46
2022-08-29T08:13:16.368Z,57.35
2022-08-29T08:14:16.421Z,57.23
2022-08-29T08:15:16.561Z,57.23
2022-08-29T08:16:16.815Z,57.43
2022-08-29T08:17:16.929Z,57.13
2022-08-29T08:18:17.267Z,57.30
2022-08-29T08:19:17.806Z,57.40
2022-08-29T08:20:17.433Z,56.90
2022-08-29T08:21:17.621Z,56.77
2022-08-29T08:22:17.771Z,56.57
2022-08-29T08:23:18.228Z,56.18
2022-08-29T08:24:19.729Z,56.18
2022-08-29T08:25:18.321Z,56.77
2022-08-29T08:26:19.507Z,56.68
2022-08-29T08:27:18.692Z,56.55
2022-08-29T08:28:18.872Z,56.35
2022-08-29T08:29:19.065Z,56.18
2022-08-29T08:30:19.212Z,55.98
2022-08-29T08:31:19.495Z,56.27
2022-08-29T08:32:19.542Z,56.08
2022-08-29T08:33:19.724Z,56.05
2022-08-29T08:34:19.913Z,56.25
2022-08-29T08:35:22.544Z,56.35
2022-08-29T08:36:20.234Z,56.15
2022-08-29T08:37:28.088Z,56.23
2022-08-29T08:38:21.554Z,56.62
2022-08-29T08:39:20.765Z,56.20
2022-08-29T08:40:21.030Z,55.50
2022-08-29T08:41:23.969Z,55.60
2022-08-29T08:42:24.923Z,55.40
2022-08-29T08:43:26.627Z,55.13
2022-08-29T08:44:22.665Z,55.13
2022-08-29T08:45:21.784Z,55.93
2022-08-29T08:46:22.065Z,56.32
2022-08-29T08:47:22.155Z,55.53
2022-08-29T08:48:22.334Z,55.23
2022-08-29T08:49:22.535Z,55.53
2022-08-29T08:50:22.675Z,55.82
2022-08-29T08:51:22.864Z,55.73
2022-08-29T08:52:23.043Z,55.85
2022-08-29T08:53:23.223Z,55.95
2022-08-29T08:54:23.415Z,56.15
2022-08-29T08:55:23.570Z,56.62
2022-08-29T08:56:23.738Z,56.02
2022-08-29T08:57:23.939Z,56.02
2022-08-29T08:58:28.969Z,56.42
2022-08-29T08:59:25.310Z,56.23
2022-08-29T09:00:24.456Z,56.23
2022-08-29T09:01:24.682Z,55.82
2022-08-29T09:02:24.811Z,55.93
2022-08-29T09:03:25.006Z,56.02
2022-08-29T09:04:25.166Z,56.30
2022-08-29T09:05:25.328Z,56.30
2022-08-29T09:06:25.505Z,56.20
2022-08-29T09:07:25.687Z,56.20
2022-08-29T09:08:25.857Z,56.10
2022-08-29T09:09:26.048Z,56.00
2022-08-29T09:10:26.218Z,56.70
2022-08-29T09:11:26.407Z,56.00
2022-08-29T09:12:26.587Z,56.20
2022-08-29T09:13:26.890Z,55.80
2022-08-29T09:14:26.958Z,56.00
2022-08-29T09:15:27.180Z,55.80
2022-08-29T09:16:27.313Z,55.50
2022-08-29T09:17:27.480Z,55.70
2022-08-29T09:18:27.669Z,56.00
2022-08-29T09:19:27.837Z,55.38
2022-08-29T09:20:27.999Z,56.17
2022-08-29T09:21:43.692Z,55.47
2022-08-29T09:22:33.184Z,55.94
2022-08-29T09:23:28.530Z,55.35
2022-08-29T09:24:28.669Z,54.55
2022-08-29T09:25:28.859Z,54.65
2022-08-29T09:26:29.040Z,54.53
2022-08-29T09:27:29.229Z,54.53
2022-08-29T09:28:30.799Z,54.72
2022-08-29T09:29:29.589Z,54.33
2022-08-29T09:30:29.748Z,53.83
2022-08-29T09:31:29.956Z,53.83
2022-08-29T09:32:30.100Z,54.03
2022-08-29T09:33:30.270Z,54.43
2022-08-29T09:34:40.385Z,54.23
2022-08-29T09:35:31.620Z,54.60
2022-08-29T09:36:30.760Z,54.60
2022-08-29T09:37:30.930Z,54.70
2022-08-29T09:38:31.120Z,54.47
2022-08-29T09:39:31.343Z,53.48
2022-08-29T09:40:31.502Z,54.77
2022-08-29T09:41:31.659Z,53.68
2022-08-29T09:42:31.801Z,54.00
2022-08-29T09:43:31.990Z,53.61
2022-08-29T09:44:32.226Z,54.10
2022-08-29T09:45:32.431Z,53.70
2022-08-29T09:46:32.512Z,54.50
2022-08-29T09:47:32.708Z,54.30
2022-08-29T09:48:35.564Z,53.80
2022-08-29T09:49:33.053Z,53.91
2022-08-29T09:50:33.268Z,54.10
2022-08-29T09:51:33.473Z,53.70
2022-08-29T09:52:33.572Z,53.31
2022-08-29T09:53:33.772Z,53.70
2022-08-29T09:54:33.934Z,53.61
2022-08-29T09:55:34.114Z,53.80
2022-08-29T09:56:34.305Z,54.23
2022-08-29T09:57:34.524Z,54.23
2022-08-29T09:58:39.529Z,54.23
2022-08-29T09:59:35.841Z,54.33
2022-08-29T10:00:34.994Z,54.23
2022-08-29T10:01:36.879Z,54.33
2022-08-29T10:02:35.392Z,54.53
2022-08-29T10:03:35.547Z,55.12
2022-08-29T10:04:35.692Z,55.02
2022-08-29T10:05:35.913Z,55.02
2022-08-29T10:06:39.999Z,54.60
2022-08-29T10:07:37.870Z,54.10
2022-08-29T10:08:36.444Z,54.90
2022-08-29T10:09:36.574Z,54.60
2022-08-29T10:10:36.784Z,55.00
2022-08-29T10:11:36.914Z,54.10
2022-08-29T10:12:37.107Z,54.70
2022-08-29T10:13:37.265Z,54.30
2022-08-29T10:14:37.408Z,54.90
2022-08-29T10:15:50.517Z,54.90
2022-08-29T10:16:38.850Z,54.70
2022-08-29T10:17:37.935Z,53.70
2022-08-29T10:18:38.141Z,54.10
2022-08-29T10:19:38.266Z,54.28
2022-08-29T10:20:38.446Z,53.88
2022-08-29T10:21:38.626Z,54.08
2022-08-29T10:22:38.812Z,53.58
2022-08-29T10:23:39.007Z,54.17
2022-08-29T10:24:39.188Z,53.98
2022-08-29T10:25:39.326Z,53.68
2022-08-29T10:26:39.516Z,53.96
2022-08-29T10:27:39.698Z,54.05
2022-08-29T10:28:39.889Z,53.53
2022-08-29T10:29:40.042Z,53.63
2022-08-29T10:30:40.229Z,53.13
2022-08-29T10:31:40.426Z,53.20
2022-08-29T10:32:40.556Z,52.51
2022-08-29T10:33:40.756Z,52.61
2022-08-29T10:34:40.897Z,52.78
2022-08-29T10:35:41.058Z,51.30
2022-08-29T10:36:41.240Z,51.10
2022-08-29T10:37:41.388Z,51.00
2022-08-29T10:38:41.578Z,50.88
2022-08-29T10:39:41.747Z,50.88
2022-08-29T10:40:43.527Z,50.98
2022-08-29T10:41:42.069Z,51.18
2022-08-29T10:42:42.237Z,50.16
2022-08-29T10:43:42.420Z,50.36
2022-08-29T10:44:42.580Z,50.76
2022-08-29T10:45:42.766Z,50.85
2022-08-29T10:46:42.922Z,49.57
2022-08-29T10:47:43.100Z,49.87
2022-08-29T10:48:43.323Z,49.87
2022-08-29T10:49:44.948Z,49.96
2022-08-29T10:50:45.332Z,50.06
2022-08-29T10:51:43.739Z,50.68
2022-08-29T10:52:43.918Z,50.48
2022-08-29T10:53:44.111Z,51.07
2022-08-29T10:54:44.262Z,51.47
2022-08-29T10:55:44.441Z,51.57
2022-08-29T10:56:44.634Z,51.30
2022-08-29T10:57:44.802Z,51.40
2022-08-29T10:58:45.001Z,51.50
2022-08-29T10:59:45.161Z,51.40
2022-08-29T11:00:45.386Z,51.50
2022-08-29T11:01:45.555Z,52.09
2022-08-29T11:02:45.672Z,52.19
2022-08-29T11:03:45.903Z,51.60
2022-08-29T11:04:46.026Z,51.89
2022-08-29T11:05:46.201Z,52.49
2022-08-29T11:06:46.381Z,51.70
2022-08-29T11:07:46.584Z,51.50
2022-08-29T11:08:46.734Z,51.03
2022-08-29T11:09:46.891Z,52.02
2022-08-29T11:10:47.075Z,51.82
2022-08-29T11:11:47.265Z,52.31
2022-08-29T11:12:47.448Z,51.82
2022-08-29T11:13:47.645Z,51.92
2022-08-29T11:14:47.844Z,52.51
2022-08-29T11:15:48.435Z,53.01
2022-08-29T11:16:48.306Z,52.02
2022-08-29T11:17:48.337Z,52.22
2022-08-29T11:18:48.504Z,52.19
2022-08-29T11:19:48.641Z,51.40
2022-08-29T11:20:48.828Z,51.32
2022-08-29T11:21:49.021Z,51.72
2022-08-29T11:22:49.185Z,51.92
2022-08-29T11:23:49.405Z,52.09
2022-08-29T11:24:49.555Z,52.59
2022-08-29T11:25:49.729Z,52.09
2022-08-29T11:26:49.916Z,51.47
2022-08-29T11:27:50.035Z,51.37
2022-08-29T11:28:50.236Z,50.85
2022-08-29T11:29:50.381Z,50.85
2022-08-29T11:30:50.547Z,50.66
2022-08-29T11:31:50.767Z,50.46
2022-08-29T11:32:50.888Z,50.63
2022-08-29T11:33:51.078Z,50.63
2022-08-29T11:34:51.240Z,50.61
2022-08-29T11:35:51.482Z,49.13
2022-08-29T11:36:51.590Z,49.82
2022-08-29T11:37:51.737Z,49.13
2022-08-29T11:38:51.918Z,48.43
2022-08-29T11:39:52.068Z,49.13
2022-08-29T11:41:58.181Z,48.80
2022-08-29T11:42:53.721Z,48.71
2022-08-29T11:43:52.788Z,49.18
2022-08-29T11:44:52.951Z,48.39
2022-08-29T11:45:53.098Z,47.99
2022-08-29T11:46:56.195Z,47.97
2022-08-29T11:47:53.459Z,48.16
2022-08-29T11:48:57.991Z,47.38
2022-08-29T11:49:54.820Z,47.38
2022-08-29T11:50:56.975Z,47.38
2022-08-29T11:51:54.172Z,47.18
2022-08-29T11:52:54.342Z,46.78
2022-08-29T11:53:54.510Z,47.28
2022-08-29T11:54:54.693Z,47.85
2022-08-29T11:55:54.862Z,46.96
2022-08-29T11:56:55.019Z,46.37
2022-08-29T11:57:55.185Z,46.66
2022-08-29T11:58:55.362Z,46.88
2022-08-29T11:59:55.524Z,47.08
2022-08-29T12:00:55.712Z,47.57
2022-08-29T12:01:55.905Z,47.75
2022-08-29T12:02:56.054Z,47.75
2022-08-29T12:03:56.232Z,47.85
2022-08-29T12:04:56.399Z,48.04
2022-08-29T12:05:56.565Z,47.06
2022-08-29T12:06:56.733Z,46.86
2022-08-29T12:07:58.496Z,46.66
2022-08-29T12:08:57.765Z,47.25
2022-08-29T12:09:57.267Z,48.02
2022-08-29T12:10:57.444Z,48.02
2022-08-29T12:11:57.613Z,47.72
2022-08-29T12:12:57.784Z,47.21
2022-08-29T12:13:57.964Z,45.93
2022-08-29T12:14:58.124Z,45.63
2022-08-29T12:15:58.322Z,46.12
2022-08-29T12:16:58.486Z,46.10
2022-08-29T12:18:02.440Z,45.31
2022-08-29T12:18:58.835Z,45.31
2022-08-29T12:19:58.995Z,45.51
2022-08-29T12:20:59.174Z,45.81
2022-08-29T12:21:59.347Z,45.61
2022-08-29T12:22:59.514Z,44.62
2022-08-29T12:23:59.695Z,45.02
2022-08-29T12:24:59.859Z,45.31
2022-08-29T12:26:21.041Z,46.30
2022-08-29T12:27:01.206Z,46.40
2022-08-29T12:28:00.356Z,46.30
2022-08-29T12:29:00.579Z,45.61
2022-08-29T12:30:00.744Z,45.31
2022-08-29T12:31:01.295Z,45.90
2022-08-29T12:32:22.450Z,46.72
2022-08-29T12:33:02.265Z,47.11
2022-08-29T12:34:01.458Z,47.01
2022-08-29T12:35:01.617Z,46.72
2022-08-29T12:36:01.789Z,46.72
2022-08-29T12:37:01.969Z,46.34
2022-08-29T12:38:03.424Z,46.34
2022-08-29T12:39:02.329Z,46.74
2022-08-29T12:40:02.578Z,46.66
2022-08-29T12:41:02.640Z,47.35
2022-08-29T12:42:02.818Z,47.75
2022-08-29T12:43:03.018Z,48.07
2022-08-29T12:44:04.080Z,48.46
2022-08-29T12:45:03.320Z,47.87
2022-08-29T12:46:03.546Z,48.07
2022-08-29T12:47:03.724Z,47.89
2022-08-29T12:48:03.849Z,48.19
2022-08-29T12:49:03.999Z,47.89
2022-08-29T12:50:04.200Z,48.09
2022-08-29T12:51:04.353Z,47.81
2022-08-29T12:52:04.500Z,48.02
2022-08-29T12:53:04.710Z,48.61
2022-08-29T12:54:04.852Z,48.90
2022-08-29T12:55:05.030Z,49.20
2022-08-29T12:56:05.211Z,49.13